Terminal Aerodrome Forecast
Issued by NWS

Home | Current Version | Previous Version | Text Only | Print | Product List | Glossary On
Versions: 1 2 3 4 5 6 7 8 9 10 11 12
000
FTPQ31 PGUM 280525
TAFGUM
TAF

TAF
PKWA 280525Z 2806/2906 08010KT P6SM VCSH FEW015 SCT050
      TEMPO 2807/2809 10010KT 4SM SHRA SCT012 BKN030=

USA.gov is the U.S. government's official web portal to all federal, state and local government web resources and services.